This is the latest recevied weather packets stored in our database for station/object JF7ELG-13. If no packets are shown the sender has not sent any weather packets the latest 10 day(s).
| Time | Temp. | Humidity | Pressure | Rain* | Wind** | Luminosity | Snow |
|---|---|---|---|---|---|---|---|
| 1778092409 | 13.33° C | 88% | 1011.3 hPa | 0 mm | - | - | - |
| 1778091534 | 13.89° C | 91% | 1011.2 hPa | 0 mm | - | - | - |
| 1778090635 | 13.89° C | 89% | 1011.4 hPa | 0 mm | - | - | - |
| 1778089707 | 13.89° C | 90% | 1011.7 hPa | 0 mm | - | - | - |
| 1778088829 | 13.33° C | 90% | 1011.8 hPa | 0 mm | - | - | - |
| 1778087923 | 13.33° C | 90% | 1011.8 hPa | 0 mm | - | - | - |
| 1778087004 | 13.33° C | 90% | 1011.8 hPa | 0 mm | - | - | - |
| 1778086096 | 13.89° C | 88% | 1012 hPa | 0 mm | - | - | - |
| 1778085234 | 14.44° C | 87% | 1012 hPa | 0 mm | - | - | - |
| 1778084324 | 14.44° C | 87% | 1012.2 hPa | 0 mm | - | - | - |
| 1778083399 | 15° C | 84% | 1012.2 hPa | 0 mm | - | - | - |
| 1778082523 | 15° C | 86% | 1012.1 hPa | 0 mm | - | - | - |
| 1778081616 | 15° C | 84% | 1012.1 hPa | 0 mm | - | - | - |
| 1778080704 | 15.56° C | 84% | 1012.2 hPa | 0 mm | - | - | - |
| 1778078903 | 17.22° C | 77% | 1012.8 hPa | 0 mm | - | - | - |
| 1778078014 | 17.78° C | 75% | 1012.8 hPa | 0 mm | - | - | - |
| 1778077131 | 17.78° C | 75% | 1012.8 hPa | 0 mm | - | - | - |
| 1778076238 | 17.78° C | 76% | 1013 hPa | 0 mm | - | - | - |
| 1778075301 | 17.78° C | 76% | 1013.1 hPa | 0 mm | - | - | - |
| 1778074418 | 17.78° C | 77% | 1013 hPa | 0 mm | - | - | - |
| 1778073525 | 17.78° C | 77% | 1013.2 hPa | 0 mm | - | - | - |
| 1778072622 | 17.78° C | 76% | 1013.2 hPa | 0 mm | - | - | - |
| 1778071732 | 17.78° C | 77% | 1013.5 hPa | 0 mm | - | - | - |
| 1778070824 | 17.22° C | 79% | 1013.7 hPa | 0 mm | - | - | - |
| 1778069946 | 16.67° C | 83% | 1013.5 hPa | 0 mm | - | - | - |
* Rain latest hour (hover to see other rain measurements)
** Current wind speed in m/s (hover to see current wind gust speed)